Vienna, Illinois
Current Conditions -  °F | °C
As of 12:35 PM on Monday 20 Oct 2014 (Local Time) from KM30 Reporting Station
Clear Clear  
Wind Chill: 70°   Ceiling: Unl
Heat Index: 70°   Visibility: 10mi
Dew Point: 54°   Wind: 8mph
Humidity: 57%   Direction: 230°SW
Pressure: 29.99"   Gusts: NA
Location:  37.42°N, 88.9°W
Report Text: KM30 201735Z AUTO 23007KT 10SM CLR 21/12 A2999 RMK AO2 T02090120
Loading
Personal Weather Stations






























Interactive Weather Map
Tropical Storm Tracking
New forecast layout! Learn more

10-Day Weather Forecast

Advertisements
Track Severe Weather on mobile